createdAt,value
2022-08-09T00:00:01.009Z,99469.38
2022-08-09T00:02:34.659Z,99453.72
2022-08-09T00:06:18.225Z,99464.34
2022-08-09T00:07:55.771Z,99447.88
2022-08-09T00:10:29.161Z,99427.41
2022-08-09T00:12:59.120Z,99417.13
2022-08-09T00:15:57.932Z,99414.00
2022-08-09T00:18:17.858Z,99398.47
2022-08-09T00:20:50.546Z,99382.50
2022-08-09T00:23:54.805Z,99397.34
2022-08-09T00:26:10.977Z,99384.19
2022-08-09T00:28:41.244Z,99360.72
2022-08-09T00:31:57.467Z,99381.56
2022-08-09T00:33:59.485Z,99391.44
2022-08-09T00:36:32.624Z,99379.69
2022-08-09T00:39:01.806Z,99365.63
2022-08-09T00:44:15.772Z,99371.44
2022-08-09T00:44:26.682Z,99340.75
2022-08-09T00:47:05.619Z,99362.75
2022-08-09T00:49:36.658Z,99363.19
2022-08-09T00:52:15.893Z,99331.88
2022-08-09T00:54:46.281Z,99342.47
2022-08-09T00:57:24.702Z,99347.25
2022-08-09T01:00:02.965Z,99364.94
2022-08-09T01:02:35.146Z,99387.88
2022-08-09T01:05:14.202Z,99393.44
2022-08-09T01:08:00.321Z,99374.78
2022-08-09T01:10:38.453Z,99378.47
2022-08-09T01:13:18.828Z,99390.44
2022-08-09T01:15:55.730Z,99390.78
2022-08-09T01:18:31.488Z,99388.69
2022-08-09T01:21:17.607Z,99382.03
2022-08-09T01:24:01.780Z,99398.63
2022-08-09T01:26:46.209Z,99401.19
2022-08-09T01:29:17.548Z,99400.28
2022-08-09T01:32:30.059Z,99361.94
2022-08-09T01:34:39.813Z,99400.16
2022-08-09T01:37:12.246Z,99396.16
2022-08-09T01:39:44.055Z,99396.81
2022-08-09T01:42:15.144Z,99403.00
2022-08-09T01:44:44.576Z,99390.19
2022-08-09T01:47:17.434Z,99401.44
2022-08-09T01:49:50.967Z,99408.56
2022-08-09T01:52:26.141Z,99404.28
2022-08-09T01:54:58.886Z,99414.06
2022-08-09T01:57:40.225Z,99421.22
2022-08-09T02:00:34.506Z,99412.66
2022-08-09T02:03:13.726Z,99424.84
2022-08-09T02:06:03.878Z,99418.06
2022-08-09T02:08:57.301Z,99419.00
2022-08-09T02:11:24.142Z,99413.81
2022-08-09T02:14:26.593Z,99402.25
2022-08-09T02:17:14.724Z,99417.28
2022-08-09T02:19:45.812Z,99417.88
2022-08-09T02:22:31.485Z,99414.44
2022-08-09T02:25:04.363Z,99425.81
2022-08-09T02:27:57.622Z,99427.72
2022-08-09T02:30:54.963Z,99427.19
2022-08-09T02:33:58.377Z,99401.66
2022-08-09T02:36:31.480Z,99435.72
2022-08-09T02:39:04.850Z,99434.09
2022-08-09T02:41:40.148Z,99439.97
2022-08-09T02:44:29.473Z,99438.00
2022-08-09T02:47:06.881Z,99427.53
2022-08-09T02:49:44.762Z,99439.16
2022-08-09T02:52:16.546Z,99440.47
2022-08-09T02:54:54.551Z,99458.19
2022-08-09T02:57:25.709Z,99478.44
2022-08-09T03:00:20.722Z,99464.53
2022-08-09T03:02:59.885Z,99451.94
2022-08-09T03:05:34.694Z,99449.06
2022-08-09T03:08:06.602Z,99456.66
2022-08-09T03:10:38.026Z,99458.41
2022-08-09T03:13:09.951Z,99460.03
2022-08-09T03:16:06.070Z,99446.75
2022-08-09T03:18:31.680Z,99448.16
2022-08-09T03:21:02.145Z,99435.81
2022-08-09T03:23:31.364Z,99452.63
2022-08-09T03:26:03.677Z,99451.50
2022-08-09T03:28:36.215Z,99447.53
2022-08-09T03:31:10.214Z,99444.19
2022-08-09T03:33:54.302Z,99452.59
2022-08-09T03:36:27.832Z,99435.63
2022-08-09T03:38:57.231Z,99418.56
2022-08-09T03:41:30.251Z,99451.91
2022-08-09T03:44:15.522Z,99446.25
2022-08-09T03:46:45.014Z,99452.59
2022-08-09T03:49:19.382Z,99430.88
2022-08-09T03:52:00.086Z,99455.41
2022-08-09T03:54:34.421Z,99441.00
2022-08-09T03:57:18.403Z,99463.44
2022-08-09T03:59:54.983Z,99470.34
2022-08-09T04:02:28.393Z,99456.91
2022-08-09T04:05:01.324Z,99466.75
2022-08-09T04:07:53.214Z,99460.38
2022-08-09T04:10:28.851Z,99471.75
2022-08-09T04:13:00.690Z,99465.13
2022-08-09T04:16:17.303Z,99472.53
2022-08-09T04:18:21.657Z,99458.19
2022-08-09T04:20:52.373Z,99469.47
2022-08-09T04:23:23.333Z,99468.84
2022-08-09T04:25:54.345Z,99473.44
2022-08-09T04:28:34.121Z,99470.75
2022-08-09T04:31:09.046Z,99468.38
2022-08-09T04:33:47.460Z,99462.38
2022-08-09T04:36:26.287Z,99461.78
2022-08-09T04:38:56.082Z,99461.16
2022-08-09T04:41:32.819Z,99464.00
2022-08-09T04:44:05.800Z,99447.50
2022-08-09T04:46:59.841Z,99457.50
2022-08-09T04:49:52.325Z,99453.03
2022-08-09T04:52:26.804Z,99454.28
2022-08-09T04:55:04.471Z,99447.34
2022-08-09T04:57:54.277Z,99438.31
2022-08-09T05:00:25.605Z,99434.66
2022-08-09T05:03:13.368Z,99420.56
2022-08-09T05:05:52.504Z,99433.13
2022-08-09T05:08:35.007Z,99441.81
2022-08-09T05:11:06.917Z,99428.69
2022-08-09T05:13:54.905Z,99435.88
2022-08-09T05:16:31.539Z,99433.88
2022-08-09T05:19:02.833Z,99435.75
2022-08-09T05:21:36.530Z,99437.84
2022-08-09T05:24:17.323Z,99427.06
2022-08-09T05:26:47.823Z,99442.63
2022-08-09T05:29:31.510Z,99444.31
2022-08-09T05:32:06.867Z,99448.84
2022-08-09T05:34:42.860Z,99423.59
2022-08-09T05:37:23.587Z,99421.16
2022-08-09T05:39:59.442Z,99326.66
2022-08-09T05:42:29.866Z,99416.63
2022-08-09T05:45:02.841Z,99438.41
2022-08-09T05:47:35.231Z,99446.38
2022-08-09T05:50:25.593Z,99426.69
2022-08-09T05:53:21.433Z,99453.69
2022-08-09T05:58:57.846Z,99401.31
2022-08-09T06:01:34.228Z,99455.00
2022-08-09T06:04:12.336Z,99445.28
2022-08-09T06:06:49.743Z,99444.28
2022-08-09T06:09:41.199Z,99438.31
2022-08-09T06:12:17.224Z,99426.22
2022-08-09T06:14:53.201Z,99427.22
2022-08-09T06:20:31.393Z,99435.13
2022-08-09T06:23:03.339Z,99421.69
2022-08-09T06:25:32.467Z,99388.28
2022-08-09T06:28:05.636Z,99433.88
2022-08-09T06:30:34.832Z,99433.53
2022-08-09T06:33:41.022Z,99426.84
2022-08-09T06:36:11.896Z,99443.22
2022-08-09T06:38:50.115Z,99442.72
2022-08-09T06:41:20.605Z,99395.78
2022-08-09T06:55:23.107Z,99375.66
2022-08-09T06:58:01.524Z,99429.78
2022-08-09T07:00:51.877Z,99418.81
2022-08-09T07:03:28.006Z,99426.56
2022-08-09T07:06:03.642Z,99438.81
2022-08-09T07:08:37.332Z,99443.22
2022-08-09T07:11:08.655Z,99427.81
2022-08-09T07:14:03.973Z,99461.47
2022-08-09T07:16:43.424Z,99463.94
2022-08-09T07:19:22.902Z,99459.38
2022-08-09T07:21:55.641Z,99458.44
2022-08-09T07:24:31.404Z,99455.47
2022-08-09T07:27:03.119Z,99444.38
2022-08-09T07:29:38.004Z,99449.13
2022-08-09T07:32:13.323Z,99451.28
2022-08-09T07:34:42.454Z,99442.03
2022-08-09T07:37:15.751Z,99461.00
2022-08-09T07:39:44.751Z,99428.22
2022-08-09T07:42:15.657Z,99442.53
2022-08-09T07:44:51.769Z,99422.69
2022-08-09T07:47:26.500Z,99421.16
2022-08-09T07:50:08.151Z,99430.91
2022-08-09T08:01:52.917Z,99395.31
2022-08-09T08:04:31.614Z,99447.06
2022-08-09T08:07:15.597Z,99463.50
2022-08-09T08:10:07.921Z,99469.13
2022-08-09T08:12:45.158Z,99468.22
2022-08-09T08:15:17.747Z,99463.88
2022-08-09T08:17:53.790Z,99462.28
2022-08-09T08:20:32.266Z,99467.84
2022-08-09T08:23:16.176Z,99459.09
2022-08-09T08:25:49.739Z,99468.13
2022-08-09T08:28:25.916Z,99476.63
2022-08-09T08:31:10.432Z,99485.47
2022-08-09T08:33:52.683Z,99494.63
2022-08-09T08:36:28.848Z,99483.69
2022-08-09T08:38:58.763Z,99483.84
2022-08-09T08:41:50.415Z,99465.28
2022-08-09T08:44:26.854Z,99475.47
2022-08-09T08:47:12.280Z,99471.81
2022-08-09T08:49:47.823Z,99481.44
2022-08-09T08:55:13.565Z,99468.00
2022-08-09T08:57:43.979Z,99480.41
2022-08-09T09:00:30.451Z,99465.25
2022-08-09T09:03:08.720Z,99476.75
2022-08-09T09:05:58.346Z,99473.53
2022-08-09T09:08:38.042Z,99476.38
2022-08-09T09:11:17.822Z,99467.16
2022-08-09T09:13:58.669Z,99461.16
2022-08-09T09:16:34.356Z,99483.19
2022-08-09T09:19:36.962Z,99458.00
2022-08-09T09:22:08.014Z,99463.56
2022-08-09T09:24:43.986Z,99466.22
2022-08-09T09:28:03.106Z,99454.41
2022-08-09T09:30:26.159Z,99442.63
2022-08-09T09:33:17.098Z,99461.47
2022-08-09T09:36:02.653Z,99453.47
2022-08-09T09:38:44.711Z,99467.00
2022-08-09T09:41:33.427Z,99434.28
2022-08-09T09:44:27.615Z,99416.47
2022-08-09T09:47:08.558Z,99470.91
2022-08-09T09:50:06.918Z,99458.50
2022-08-09T09:52:35.772Z,99380.31
2022-08-09T09:55:24.097Z,99456.72
2022-08-09T09:58:19.137Z,99464.81
2022-08-09T10:00:59.764Z,99447.34
2022-08-09T10:03:44.385Z,99448.81
2022-08-09T10:06:15.227Z,99416.53
2022-08-09T10:08:54.975Z,99430.19
2022-08-09T10:12:00.874Z,99448.63
2022-08-09T10:14:30.394Z,99452.91
2022-08-09T10:17:11.343Z,99454.41
2022-08-09T10:19:52.927Z,99452.41
2022-08-09T10:22:34.715Z,99447.06
2022-08-09T10:25:11.994Z,99426.25
2022-08-09T10:27:56.717Z,99449.41
2022-08-09T10:34:07.987Z,99454.69
2022-08-09T10:36:12.141Z,99458.25
2022-08-09T10:38:56.442Z,99461.50
2022-08-09T10:41:26.653Z,99468.47
2022-08-09T10:44:01.796Z,99481.25
2022-08-09T10:47:04.033Z,99460.16
2022-08-09T10:49:54.378Z,99457.78
2022-08-09T10:52:42.679Z,99484.75
2022-08-09T10:55:24.284Z,99455.06
2022-08-09T10:57:55.824Z,99462.31
2022-08-09T11:00:51.029Z,99442.94
2022-08-09T11:03:49.554Z,99468.91
2022-08-09T11:06:25.472Z,99475.66
2022-08-09T11:08:55.024Z,99457.84
2022-08-09T11:12:12.323Z,99476.38
2022-08-09T11:14:56.253Z,99450.75
2022-08-09T11:18:02.653Z,99459.28
2022-08-09T11:23:24.024Z,99473.31
2022-08-09T11:26:00.371Z,99460.81
2022-08-09T11:28:38.875Z,99457.38
2022-08-09T11:31:48.836Z,99475.75
2022-08-09T11:34:35.250Z,99471.16
2022-08-09T11:37:07.341Z,99484.00
2022-08-09T11:40:06.117Z,99470.38
2022-08-09T11:42:49.351Z,99471.84
2022-08-09T11:45:26.299Z,99474.59
2022-08-09T11:48:26.718Z,99470.44
2022-08-09T11:52:49.190Z,99472.53
2022-08-09T11:54:14.445Z,99470.25
2022-08-09T11:56:52.422Z,99461.78
2022-08-09T11:59:33.786Z,99462.38
2022-08-09T12:02:18.410Z,99463.19
2022-08-09T12:04:59.069Z,99451.91
2022-08-09T12:07:41.388Z,99452.72
2022-08-09T12:10:14.407Z,99447.25
2022-08-09T12:14:07.262Z,99462.78
2022-08-09T12:15:52.927Z,99470.47
2022-08-09T12:18:30.020Z,99476.09
2022-08-09T12:21:02.802Z,99476.16
2022-08-09T12:23:56.141Z,99462.97
2022-08-09T12:26:26.254Z,99471.09
2022-08-09T12:29:14.404Z,99450.44
2022-08-09T12:32:02.005Z,99468.03
2022-08-09T12:34:36.879Z,99465.66
2022-08-09T12:37:09.537Z,99453.13
2022-08-09T12:40:05.582Z,99451.69
2022-08-09T12:42:36.135Z,99456.22
2022-08-09T12:45:34.566Z,99441.28
2022-08-09T12:48:31.031Z,99389.06
2022-08-09T12:51:03.916Z,99461.03
2022-08-09T12:53:38.861Z,99467.50
2022-08-09T12:56:39.715Z,99454.81
2022-08-09T12:59:11.768Z,99437.47
2022-08-09T13:02:01.806Z,99449.59
2022-08-09T13:04:38.628Z,99443.25
2022-08-09T13:10:07.351Z,99435.84
2022-08-09T13:13:10.171Z,99429.06
2022-08-09T13:15:37.458Z,99444.00
2022-08-09T13:18:17.270Z,99435.25
2022-08-09T13:21:04.018Z,99431.44
2022-08-09T13:24:15.778Z,99442.06
2022-08-09T13:26:37.633Z,99432.88
2022-08-09T13:29:09.146Z,99423.16
2022-08-09T13:32:15.712Z,99437.41
2022-08-09T13:34:46.176Z,99424.97
2022-08-09T13:37:24.812Z,99437.16
2022-08-09T13:41:54.160Z,99441.75
2022-08-09T13:43:00.344Z,99431.94
2022-08-09T13:46:42.699Z,99426.00
2022-08-09T13:48:21.843Z,99414.84
2022-08-09T13:50:53.182Z,99431.81
2022-08-09T13:53:38.736Z,99441.09
2022-08-09T13:56:12.640Z,99434.25
2022-08-09T13:58:41.564Z,99421.63
2022-08-09T14:01:13.476Z,99435.34
2022-08-09T14:04:04.794Z,99438.63
2022-08-09T14:09:21.724Z,99443.94
2022-08-09T14:11:51.650Z,99437.97
2022-08-09T14:14:27.009Z,99435.78
2022-08-09T14:16:56.773Z,99440.69
2022-08-09T14:19:30.268Z,99418.38
2022-08-09T14:22:02.102Z,99444.38
2022-08-09T14:24:33.713Z,99410.47
2022-08-09T14:27:02.776Z,99430.84
2022-08-09T14:30:34.687Z,99429.28
2022-08-09T14:32:30.857Z,99437.84
2022-08-09T14:35:02.372Z,99411.59
2022-08-09T14:37:41.341Z,99435.91
2022-08-09T14:40:39.038Z,99422.00
2022-08-09T14:43:12.592Z,99405.50
2022-08-09T14:46:57.565Z,99445.25
2022-08-09T14:48:37.912Z,99441.94
2022-08-09T14:51:07.622Z,99415.97
2022-08-09T14:53:46.789Z,99422.00
2022-08-09T14:56:19.504Z,99442.63
2022-08-09T14:58:50.535Z,99444.28
2022-08-09T15:01:27.481Z,99450.59
2022-08-09T15:03:55.981Z,99436.69
2022-08-09T15:06:24.335Z,99449.91
2022-08-09T15:08:56.685Z,99453.75
2022-08-09T15:11:26.884Z,99431.69
2022-08-09T15:14:04.427Z,99441.41
2022-08-09T15:16:41.646Z,99434.19
2022-08-09T15:19:18.137Z,99436.84
2022-08-09T15:22:01.269Z,99435.38
2022-08-09T15:24:30.969Z,99442.31
2022-08-09T15:27:01.032Z,99433.41
2022-08-09T15:30:58.947Z,99438.47
2022-08-09T15:32:28.573Z,99439.13
2022-08-09T15:35:01.239Z,99442.75
2022-08-09T15:37:56.262Z,99441.06
2022-08-09T15:40:31.962Z,99434.72
2022-08-09T15:43:03.321Z,99429.34
2022-08-09T15:46:07.491Z,99436.91
2022-08-09T15:48:28.971Z,99421.81
2022-08-09T15:51:01.949Z,99419.31
2022-08-09T15:54:05.443Z,99435.34
2022-08-09T15:56:30.795Z,99431.06
2022-08-09T15:59:02.483Z,99429.81
2022-08-09T16:01:35.525Z,99429.59
2022-08-09T16:04:05.641Z,99420.03
2022-08-09T16:07:10.512Z,99386.69
2022-08-09T16:17:16.970Z,99407.88
2022-08-09T16:20:27.577Z,99444.13
2022-08-09T16:23:54.680Z,99391.38
2022-08-09T16:29:50.465Z,99444.22
2022-08-09T16:32:54.189Z,99371.72
2022-08-09T16:42:26.190Z,99411.59
2022-08-09T16:44:58.294Z,99449.56
2022-08-09T16:48:39.726Z,99453.75
2022-08-09T16:50:38.981Z,99457.44
2022-08-09T16:53:09.058Z,99455.84
2022-08-09T16:55:57.924Z,99465.06
2022-08-09T16:58:28.945Z,99462.78
2022-08-09T17:01:05.346Z,99447.56
2022-08-09T17:03:36.634Z,99476.16
2022-08-09T17:06:31.511Z,99465.56
2022-08-09T17:09:00.184Z,99478.44
2022-08-09T17:11:41.905Z,99475.31
2022-08-09T17:14:25.684Z,99479.78
2022-08-09T17:16:59.847Z,99472.25
2022-08-09T17:20:06.182Z,99468.13
2022-08-09T17:28:50.728Z,99440.75
2022-08-09T17:31:25.620Z,99409.44
2022-08-09T17:33:58.843Z,99446.81
2022-08-09T17:37:24.524Z,99362.69
2022-08-09T17:40:33.507Z,99394.56
2022-08-09T17:43:33.954Z,99465.38
2022-08-09T17:46:11.794Z,99455.34
2022-08-09T17:48:51.618Z,99482.75
2022-08-09T17:51:23.114Z,99473.63
2022-08-09T17:53:56.237Z,99481.94
2022-08-09T17:56:35.283Z,99451.06
2022-08-09T17:59:11.457Z,99440.81
2022-08-09T18:02:08.004Z,99435.28
2022-08-09T18:04:30.928Z,99469.63
2022-08-09T18:07:00.431Z,99471.41
2022-08-09T18:09:40.090Z,99468.91
2022-08-09T18:12:17.410Z,99465.13
2022-08-09T18:14:53.380Z,99478.44
2022-08-09T18:17:27.362Z,99466.88
2022-08-09T18:20:59.879Z,99466.38
2022-08-09T18:23:05.640Z,99465.28
2022-08-09T18:25:53.574Z,99470.53
2022-08-09T18:30:38.913Z,99462.50
2022-08-09T18:31:24.818Z,99469.16
2022-08-09T18:34:01.700Z,99478.34
2022-08-09T18:36:32.378Z,99468.38
2022-08-09T18:39:04.697Z,99470.94
2022-08-09T18:41:35.535Z,99470.00
2022-08-09T18:44:12.780Z,99480.28
2022-08-09T18:46:50.146Z,99472.69
2022-08-09T18:49:41.486Z,99441.84
2022-08-09T18:52:16.042Z,99430.13
2022-08-09T18:54:52.177Z,99428.88
2022-08-09T18:57:23.119Z,99436.63
2022-08-09T19:00:01.511Z,99461.47
2022-08-09T19:02:33.696Z,99478.41
2022-08-09T19:05:20.596Z,99479.81
2022-08-09T19:08:04.426Z,99485.69
2022-08-09T19:10:40.143Z,99470.97
2022-08-09T19:13:17.048Z,99427.41
2022-08-09T19:15:55.760Z,99469.88
2022-08-09T19:18:34.315Z,99473.03
2022-08-09T19:21:09.806Z,99458.34
2022-08-09T19:24:31.528Z,99477.63
2022-08-09T19:26:34.901Z,99456.88
2022-08-09T19:29:09.744Z,99481.88
2022-08-09T19:31:49.502Z,99483.16
2022-08-09T19:34:22.043Z,99467.31
2022-08-09T19:36:52.399Z,99454.34
2022-08-09T19:39:43.280Z,99470.78
2022-08-09T19:42:15.099Z,99466.53
2022-08-09T19:44:50.701Z,99452.59
2022-08-09T19:47:23.963Z,99438.66
2022-08-09T19:50:06.536Z,99454.97
2022-08-09T19:52:51.426Z,99461.28
2022-08-09T19:55:25.533Z,99459.25
2022-08-09T19:57:59.649Z,99458.16
2022-08-09T20:00:29.043Z,99464.44
2022-08-09T20:04:11.169Z,99466.38
2022-08-09T20:05:50.796Z,99463.53
2022-08-09T20:08:25.121Z,99433.44
2022-08-09T20:11:04.728Z,99465.56
2022-08-09T20:13:37.052Z,99464.94
2022-08-09T20:16:32.767Z,99459.88
2022-08-09T20:19:43.029Z,99463.53
2022-08-09T20:21:56.952Z,99454.50
2022-08-09T20:24:29.478Z,99445.00
2022-08-09T20:27:08.473Z,99460.03
2022-08-09T20:29:39.055Z,99455.72
2022-08-09T20:32:31.301Z,99463.50
2022-08-09T20:34:59.996Z,99442.13
2022-08-09T20:38:19.386Z,99453.22
2022-08-09T20:40:24.824Z,99461.28
2022-08-09T20:43:00.087Z,99460.66
2022-08-09T20:46:01.452Z,99469.16
2022-08-09T20:48:30.921Z,99469.97
2022-08-09T20:51:02.948Z,99475.69
2022-08-09T20:53:37.567Z,99462.84
2022-08-09T20:56:20.758Z,99459.03
2022-08-09T20:58:54.579Z,99473.59
2022-08-09T21:01:34.887Z,99466.16
2022-08-09T21:05:55.291Z,99469.34
2022-08-09T21:07:11.254Z,99458.09
2022-08-09T21:09:45.957Z,99469.00
2022-08-09T21:15:15.381Z,99475.50
2022-08-09T21:18:20.928Z,99458.88
2022-08-09T21:20:32.734Z,99471.56
2022-08-09T21:23:09.305Z,99476.00
2022-08-09T21:25:59.830Z,99477.56
2022-08-09T21:28:34.173Z,99475.50
2022-08-09T21:31:17.856Z,99477.72
2022-08-09T21:33:51.683Z,99486.13
2022-08-09T21:36:29.124Z,99477.91
2022-08-09T21:39:00.196Z,99470.75
2022-08-09T21:42:04.302Z,99473.16
2022-08-09T21:44:33.238Z,99470.31
2022-08-09T21:47:05.012Z,99471.22
2022-08-09T21:49:40.032Z,99456.50
2022-08-09T21:52:14.861Z,99457.91
2022-08-09T21:54:49.488Z,99459.63
2022-08-09T21:57:37.391Z,99462.16
2022-08-09T22:00:12.909Z,99449.19
2022-08-09T22:02:42.902Z,99440.13
2022-08-09T22:05:22.393Z,99459.41
2022-08-09T22:07:53.086Z,99446.75
2022-08-09T22:10:24.170Z,99435.63
2022-08-09T22:12:53.028Z,99451.50
2022-08-09T22:15:23.329Z,99454.81
2022-08-09T22:18:03.819Z,99440.53
2022-08-09T22:20:32.397Z,99454.00
2022-08-09T22:23:00.752Z,99451.00
2022-08-09T22:26:06.548Z,99451.59
2022-08-09T22:28:29.457Z,99457.94
2022-08-09T22:31:00.777Z,99438.59
2022-08-09T22:33:37.677Z,99451.09
2022-08-09T22:36:19.122Z,99447.44
2022-08-09T22:38:48.793Z,99455.06
2022-08-09T22:41:19.422Z,99447.75
2022-08-09T22:44:03.040Z,99438.13
2022-08-09T22:48:11.472Z,99452.31
2022-08-09T22:49:21.902Z,99450.91
2022-08-09T22:51:57.240Z,99454.06
2022-08-09T22:54:27.569Z,99453.25
2022-08-09T22:56:58.644Z,99436.81
2022-08-09T22:59:57.459Z,99446.31
2022-08-09T23:02:20.452Z,99456.09
2022-08-09T23:04:53.312Z,99454.50
2022-08-09T23:08:21.227Z,99444.88
2022-08-09T23:10:30.076Z,99427.41
2022-08-09T23:13:00.477Z,99453.69
2022-08-09T23:15:30.271Z,99442.47
2022-08-09T23:17:59.060Z,99442.78
2022-08-09T23:20:28.909Z,99440.72
2022-08-09T23:22:57.545Z,99448.16
2022-08-09T23:25:26.044Z,99443.56
2022-08-09T23:28:14.483Z,99449.09
2022-08-09T23:30:51.616Z,99445.59
2022-08-09T23:33:21.386Z,99452.88
2022-08-09T23:36:05.793Z,99448.00
2022-08-09T23:38:49.037Z,99427.69
2022-08-09T23:41:27.701Z,99391.81
2022-08-09T23:43:58.267Z,99471.91
2022-08-09T23:46:28.551Z,99466.19
2022-08-09T23:48:56.913Z,99478.03
2022-08-09T23:51:25.526Z,99474.84
2022-08-09T23:54:02.555Z,99483.34
2022-08-09T23:56:53.296Z,99473.84
2022-08-09T23:59:21.358Z,99465.16
